Time;durP1;ratioP1;P1;durP2;ratioP2;P2;SDS_P1;SDS_P2;PMS_P1;PMS_P2;Temp;Humidity;BMP_temperature;BMP_pressure;BME280_temperature;BME280_humidity;BME280_pressure;Samples;Min_cycle;Max_cycle;Signal;HPM_P1;HPM_P2
2023/07/13 00:06:17;;;;;;;;;;;;;;;;;;1260050;22;19921;-78
2023/07/13 00:27:55;;;;;;;;;;;;;;;;;;1264621;22;21008;-78
2023/07/13 00:31:46;;;;;;;;;;;;;;;;;;1284055;22;20021;-79
2023/07/13 00:46:14;;;;;;;;;;;;;;;;;;1267363;22;20506;-79
2023/07/13 01:17:25;;;;;;;;;;;;;;;;;;1267847;22;20583;-79
2023/07/13 01:22:36;;;;;;;;;;;;;;;;;;1267411;22;20936;-80
2023/07/13 01:50:15;;;;;;;;;;;;;;;;;;1287044;22;20686;-80
2023/07/13 02:25:55;;;;;;;;;;;;;;;;;;1269732;22;21411;-79
2023/07/13 02:43:39;;;;;;;;;;;;;;;;;;1278563;23;20020;-81
2023/07/13 02:44:09;;;;;;;;;;;;;;;;;;1278773;23;20313;-80
2023/07/13 02:44:40;;;;;;;;;;;;;;;;;;1278668;23;20323;-78
2023/07/13 02:45:10;;;;;;;;;;;;;;;;;;1278492;23;20253;-77
2023/07/13 02:45:40;;;;;;;;;;;;;;;;;;1278682;23;19904;-79
2023/07/13 02:46:10;;;;;;;;;;;;;;;;;;1278344;23;19910;-78
2023/07/13 02:46:41;;;;;;;;;;;;;;;;;;1278669;23;19954;-79
2023/07/13 02:47:11;;;;;;;;;;;;;;;;;;1284346;23;20313;-81
2023/07/13 02:47:41;;;;;;;;;;;;;;;;;;1278369;23;20237;-80
2023/07/13 02:48:12;;;;;;;;;;;;;;;;;;1277999;23;19919;-79
2023/07/13 02:48:42;;;;;;;;;;;;;;;;;;1278266;23;20341;-79
2023/07/13 02:49:12;;;;;;;;;;;;;;;;;;1278136;23;19979;-78
2023/07/13 02:49:44;;;;;;;;;;;;;;;;;;1278153;23;19904;-78
2023/07/13 02:50:14;;;;;;;;;;;;;;;;;;1278368;23;19904;-78
2023/07/13 02:50:44;;;;;;;;;;;;;;;;;;1278532;23;19910;-79
2023/07/13 02:51:14;;;;;;;;;;;;;;;;;;1278515;23;19905;-78
2023/07/13 03:03:35;;;;;;;;;;;;;;;;;;1267566;22;20226;-79
2023/07/13 03:18:06;;;;;;;;;;;;;;;;;;1289678;22;20671;-78
2023/07/13 03:23:11;;;;;;;;;;;;;;;;;;1256603;22;19986;-78
2023/07/13 03:39:41;;;;;;;;;;;;;;;;;;1293290;22;19923;-76
2023/07/13 03:40:12;;;;;;;;;;;;;;;;;;1303391;22;20348;-77
2023/07/13 03:40:42;;;;;;;;;;;;;;;;;;1303684;22;20358;-78
2023/07/13 03:41:12;;;;;;;;;;;;;;;;;;1303436;22;19934;-77
2023/07/13 03:41:42;;;;;;;;;;;;;;;;;;1303281;22;19903;-78
2023/07/13 03:42:13;;;;;;;;;;;;;;;;;;1303269;22;19991;-77
2023/07/13 03:42:43;;;;;;;;;;;;;;;;;;1303185;22;19899;-77
2023/07/13 03:43:13;;;;;;;;;;;;;;;;;;1303612;22;20311;-78
2023/07/13 03:43:43;;;;;;;;;;;;;;;;;;1304207;22;19902;-78
2023/07/13 03:44:14;;;;;;;;;;;;;;;;;;1303438;22;19941;-78
2023/07/13 03:44:52;;;;;;;;;;;;;;;;;;1303395;22;19911;-78
2023/07/13 03:45:22;;;;;;;;;;;;;;;;;;1296976;22;19910;-77
2023/07/13 03:45:52;;;;;;;;;;;;;;;;;;1298712;22;20294;-78
2023/07/13 03:46:22;;;;;;;;;;;;;;;;;;1296501;22;19994;-77
2023/07/13 03:46:53;;;;;;;;;;;;;;;;;;1291266;22;19904;-76
2023/07/13 03:47:23;;;;;;;;;;;;;;;;;;1291644;22;19904;-77
2023/07/13 03:47:53;;;;;;;;;;;;;;;;;;1291627;22;19903;-77
2023/07/13 03:48:23;;;;;;;;;;;;;;;;;;1293334;22;19907;-77
2023/07/13 03:48:54;;;;;;;;;;;;;;;;;;1292244;22;20922;-76
2023/07/13 03:49:24;;;;;;;;;;;;;;;;;;1298937;22;20271;-76
2023/07/13 03:49:54;;;;;;;;;;;;;;;;;;1292014;22;19953;-78
2023/07/13 03:50:24;;;;;;;;;;;;;;;;;;1299572;22;20342;-77
2023/07/13 03:50:55;;;;;;;;;;;;;;;;;;1299353;22;19907;-78
2023/07/13 03:51:25;;;;;;;;;;;;;;;;;;1292672;22;19973;-77
2023/07/13 03:51:56;;;;;;;;;;;;;;;;;;1291272;22;19903;-76
2023/07/13 03:52:26;;;;;;;;;;;;;;;;;;1294842;22;19903;-76
2023/07/13 03:53:36;;;;;;;;;;;;;;;;;;1269711;22;20013;-77
2023/07/13 03:54:06;;;;;;;;;;;;;;;;;;1266709;23;19963;-77
2023/07/13 03:54:37;;;;;;;;;;;;;;;;;;1271551;23;19915;-77
2023/07/13 03:55:07;;;;;;;;;;;;;;;;;;1271479;23;19913;-78
2023/07/13 03:55:37;;;;;;;;;;;;;;;;;;1271419;23;19912;-77
2023/07/13 03:56:07;;;;;;;;;;;;;;;;;;1270031;23;20047;-77
2023/07/13 03:56:38;;;;;;;;;;;;;;;;;;1270534;23;19954;-76
2023/07/13 03:57:08;;;;;;;;;;;;;;;;;;1267983;23;20063;-76
2023/07/13 03:57:38;;;;;;;;;;;;;;;;;;1270875;23;20756;-77
2023/07/13 03:58:08;;;;;;;;;;;;;;;;;;1263979;23;19905;-76
2023/07/13 03:58:39;;;;;;;;;;;;;;;;;;1265159;23;19909;-78
2023/07/13 03:59:09;;;;;;;;;;;;;;;;;;1270931;22;19904;-76
2023/07/13 03:59:39;;;;;;;;;;;;;;;;;;1271147;23;20422;-78
2023/07/13 04:00:10;;;;;;;;;;;;;;;;;;1271176;23;19905;-79
2023/07/13 04:00:40;;;;;;;;;;;;;;;;;;1264168;23;20477;-77
2023/07/13 04:01:11;;;;;;;;;;;;;;;;;;1270849;22;19935;-78
2023/07/13 04:01:41;;;;;;;;;;;;;;;;;;1270797;22;19926;-78
2023/07/13 04:02:11;;;;;;;;;;;;;;;;;;1270380;23;19913;-77
2023/07/13 04:02:41;;;;;;;;;;;;;;;;;;1271201;23;19901;-79
2023/07/13 04:03:12;;;;;;;;;;;;;;;;;;1265212;23;19912;-78
2023/07/13 04:03:42;;;;;;;;;;;;;;;;;;1271253;23;19912;-77
2023/07/13 04:04:12;;;;;;;;;;;;;;;;;;1270715;23;20312;-77
2023/07/13 04:04:42;;;;;;;;;;;;;;;;;;1268528;23;20677;-76
2023/07/13 04:05:13;;;;;;;;;;;;;;;;;;1284524;23;19908;-76
2023/07/13 04:05:43;;;;;;;;;;;;;;;;;;1284419;23;19904;-76
2023/07/13 04:06:14;;;;;;;;;;;;;;;;;;1278043;23;19954;-78
2023/07/13 04:06:45;;;;;;;;;;;;;;;;;;1282087;23;19919;-77
2023/07/13 04:07:15;;;;;;;;;;;;;;;;;;1266816;22;19923;-76
2023/07/13 04:07:46;;;;;;;;;;;;;;;;;;1252957;23;19914;-77
2023/07/13 04:08:16;;;;;;;;;;;;;;;;;;1253281;23;19905;-79
2023/07/13 04:08:47;;;;;;;;;;;;;;;;;;1253029;23;19905;-75
2023/07/13 04:09:18;;;;;;;;;;;;;;;;;;1252947;23;19906;-76
2023/07/13 04:09:48;;;;;;;;;;;;;;;;;;1252705;23;20356;-76
2023/07/13 04:10:18;;;;;;;;;;;;;;;;;;1253086;23;19906;-77
2023/07/13 04:10:49;;;;;;;;;;;;;;;;;;1252982;23;20345;-76
2023/07/13 04:11:19;;;;;;;;;;;;;;;;;;1253146;23;20052;-77
2023/07/13 04:11:49;;;;;;;;;;;;;;;;;;1252612;23;19906;-76
2023/07/13 04:12:19;;;;;;;;;;;;;;;;;;1253078;23;19910;-77
2023/07/13 04:12:50;;;;;;;;;;;;;;;;;;1252999;23;19906;-76
2023/07/13 04:13:20;;;;;;;;;;;;;;;;;;1253324;23;19906;-79
2023/07/13 04:13:50;;;;;;;;;;;;;;;;;;1253202;23;20019;-78
2023/07/13 04:14:20;;;;;;;;;;;;;;;;;;1247281;23;19914;-78
2023/07/13 04:14:51;;;;;;;;;;;;;;;;;;1246787;23;19914;-77
2023/07/13 04:15:21;;;;;;;;;;;;;;;;;;1247303;23;19941;-78
2023/07/13 04:15:51;;;;;;;;;;;;;;;;;;1251160;23;19906;-75
2023/07/13 04:16:21;;;;;;;;;;;;;;;;;;1251517;23;19916;-79
2023/07/13 04:16:54;;;;;;;;;;;;;;;;;;1251840;23;19906;-78
2023/07/13 04:17:24;;;;;;;;;;;;;;;;;;1253021;23;19906;-77
2023/07/13 04:17:54;;;;;;;;;;;;;;;;;;1252504;23;20421;-78
2023/07/13 04:18:25;;;;;;;;;;;;;;;;;;1253054;23;20242;-76
2023/07/13 04:18:59;;;;;;;;;;;;;;;;;;1251816;23;20422;-81
2023/07/13 04:19:29;;;;;;;;;;;;;;;;;;1246469;23;19914;-76
2023/07/13 04:19:59;;;;;;;;;;;;;;;;;;1246647;23;19953;-78
2023/07/13 04:20:29;;;;;;;;;;;;;;;;;;1252557;23;19910;-79
2023/07/13 04:21:00;;;;;;;;;;;;;;;;;;1252960;23;19905;-78
2023/07/13 04:21:30;;;;;;;;;;;;;;;;;;1252910;23;20453;-78
2023/07/13 04:22:00;;;;;;;;;;;;;;;;;;1252449;23;20008;-76
2023/07/13 04:22:30;;;;;;;;;;;;;;;;;;1252708;23;19920;-77
2023/07/13 04:23:01;;;;;;;;;;;;;;;;;;1253334;23;20043;-78
2023/07/13 04:23:31;;;;;;;;;;;;;;;;;;1253022;23;20017;-77
2023/07/13 04:24:02;;;;;;;;;;;;;;;;;;1251981;23;20342;-77
2023/07/13 04:24:32;;;;;;;;;;;;;;;;;;1252897;23;19916;-77
2023/07/13 04:25:05;;;;;;;;;;;;;;;;;;1253138;23;19905;-77
2023/07/13 04:25:35;;;;;;;;;;;;;;;;;;1253771;23;19910;-78
2023/07/13 04:26:06;;;;;;;;;;;;;;;;;;1253329;23;20337;-77
2023/07/13 04:26:38;;;;;;;;;;;;;;;;;;1252916;23;20006;-78
2023/07/13 04:27:41;;;;;;;;;;;;;;;;;;1267786;23;19979;-78
2023/07/13 04:28:11;;;;;;;;;;;;;;;;;;1258966;23;19951;-79
2023/07/13 04:28:41;;;;;;;;;;;;;;;;;;1259420;23;19906;-79
2023/07/13 04:29:11;;;;;;;;;;;;;;;;;;1259637;23;19958;-77
2023/07/13 04:29:42;;;;;;;;;;;;;;;;;;1259488;23;19988;-77
2023/07/13 04:30:12;;;;;;;;;;;;;;;;;;1256785;23;19906;-76
2023/07/13 04:30:42;;;;;;;;;;;;;;;;;;1259105;23;19912;-76
2023/07/13 04:31:12;;;;;;;;;;;;;;;;;;1259048;23;19905;-77
2023/07/13 04:31:43;;;;;;;;;;;;;;;;;;1258954;23;20322;-78
2023/07/13 04:32:13;;;;;;;;;;;;;;;;;;1258986;23;19910;-79
2023/07/13 04:32:43;;;;;;;;;;;;;;;;;;1290557;23;20328;-78
2023/07/13 04:33:13;;;;;;;;;;;;;;;;;;1284174;23;20252;-79
2023/07/13 04:33:44;;;;;;;;;;;;;;;;;;1284832;23;20214;-77
2023/07/13 04:34:14;;;;;;;;;;;;;;;;;;1290128;23;20264;-76
2023/07/13 04:34:44;;;;;;;;;;;;;;;;;;1259110;23;20026;-79
2023/07/13 04:35:15;;;;;;;;;;;;;;;;;;1290611;23;19903;-77
2023/07/13 04:35:46;;;;;;;;;;;;;;;;;;1297427;22;19946;-79
2023/07/13 04:36:16;;;;;;;;;;;;;;;;;;1297147;22;19903;-77
2023/07/13 04:36:47;;;;;;;;;;;;;;;;;;1295171;22;19903;-78
2023/07/13 04:37:17;;;;;;;;;;;;;;;;;;1259562;23;19909;-80
2023/07/13 04:37:48;;;;;;;;;;;;;;;;;;1296929;22;19904;-77
2023/07/13 04:38:18;;;;;;;;;;;;;;;;;;1297172;22;19975;-81
2023/07/13 04:38:48;;;;;;;;;;;;;;;;;;1296678;22;19903;-79
2023/07/13 04:39:20;;;;;;;;;;;;;;;;;;1290053;23;19903;-80
2023/07/13 04:39:50;;;;;;;;;;;;;;;;;;1259357;23;20302;-79
2023/07/13 04:41:35;;;;;;;;;;;;;;;;;;1283643;22;19962;-78
2023/07/13 04:42:05;;;;;;;;;;;;;;;;;;1278062;23;20357;-76
2023/07/13 04:42:36;;;;;;;;;;;;;;;;;;1265920;23;19935;-79
2023/07/13 04:43:06;;;;;;;;;;;;;;;;;;1265857;22;19905;-78
2023/07/13 04:43:36;;;;;;;;;;;;;;;;;;1265998;23;20240;-78
2023/07/13 04:44:06;;;;;;;;;;;;;;;;;;1265297;22;20326;-76
2023/07/13 04:44:37;;;;;;;;;;;;;;;;;;1265376;23;19908;-76
2023/07/13 04:45:07;;;;;;;;;;;;;;;;;;1264904;22;19905;-75
2023/07/13 04:45:37;;;;;;;;;;;;;;;;;;1264902;23;19909;-78
2023/07/13 04:46:07;;;;;;;;;;;;;;;;;;1264780;23;19998;-78
2023/07/13 04:46:38;;;;;;;;;;;;;;;;;;1264959;23;19909;-75
2023/07/13 04:47:08;;;;;;;;;;;;;;;;;;1264838;23;20272;-77
2023/07/13 04:47:38;;;;;;;;;;;;;;;;;;1265315;23;19975;-77
2023/07/13 04:48:09;;;;;;;;;;;;;;;;;;1258336;23;19905;-77
2023/07/13 04:48:39;;;;;;;;;;;;;;;;;;1259370;23;20405;-76
2023/07/13 04:49:09;;;;;;;;;;;;;;;;;;1259426;23;19940;-77
2023/07/13 04:49:40;;;;;;;;;;;;;;;;;;1265190;23;19958;-76
2023/07/13 04:50:10;;;;;;;;;;;;;;;;;;1264452;23;20249;-79
2023/07/13 04:50:41;;;;;;;;;;;;;;;;;;1265513;23;20361;-80
2023/07/13 04:51:11;;;;;;;;;;;;;;;;;;1265114;23;19905;-77
2023/07/13 04:51:41;;;;;;;;;;;;;;;;;;1264923;23;19904;-76
2023/07/13 04:52:11;;;;;;;;;;;;;;;;;;1264708;23;20000;-78
2023/07/13 04:52:42;;;;;;;;;;;;;;;;;;1259261;23;19901;-77
2023/07/13 04:53:12;;;;;;;;;;;;;;;;;;1265121;23;19954;-80
2023/07/13 04:53:43;;;;;;;;;;;;;;;;;;1264863;23;19992;-77
2023/07/13 04:54:13;;;;;;;;;;;;;;;;;;1264968;23;19955;-76
2023/07/13 04:54:43;;;;;;;;;;;;;;;;;;1265255;23;19909;-77
2023/07/13 04:55:14;;;;;;;;;;;;;;;;;;1264722;23;19905;-76
2023/07/13 04:55:44;;;;;;;;;;;;;;;;;;1264964;23;19991;-77
2023/07/13 04:56:14;;;;;;;;;;;;;;;;;;1264840;23;19905;-77
2023/07/13 04:56:44;;;;;;;;;;;;;;;;;;1258694;23;19992;-76
2023/07/13 04:57:15;;;;;;;;;;;;;;;;;;1265055;23;20357;-76
2023/07/13 04:57:45;;;;;;;;;;;;;;;;;;1265004;23;20289;-77
2023/07/13 04:58:15;;;;;;;;;;;;;;;;;;1264962;23;19963;-76
2023/07/13 04:58:45;;;;;;;;;;;;;;;;;;1265431;23;19917;-76
2023/07/13 04:59:16;;;;;;;;;;;;;;;;;;1265440;23;19913;-75
2023/07/13 04:59:46;;;;;;;;;;;;;;;;;;1265144;22;19988;-77
2023/07/13 05:00:16;;;;;;;;;;;;;;;;;;1264940;23;19905;-76
2023/07/13 05:00:46;;;;;;;;;;;;;;;;;;1264958;23;20415;-77
2023/07/13 05:01:17;;;;;;;;;;;;;;;;;;1264437;23;19935;-75
2023/07/13 05:01:47;;;;;;;;;;;;;;;;;;1264878;23;19905;-77
2023/07/13 05:02:17;;;;;;;;;;;;;;;;;;1265165;23;20352;-77
2023/07/13 05:02:48;;;;;;;;;;;;;;;;;;1265256;23;19905;-76
2023/07/13 05:03:18;;;;;;;;;;;;;;;;;;1264899;22;20377;-77
2023/07/13 05:03:48;;;;;;;;;;;;;;;;;;1264824;23;19954;-77
2023/07/13 05:04:19;;;;;;;;;;;;;;;;;;1265095;23;19936;-78
2023/07/13 05:05:28;;;;;;;;;;;;;;;;;;1263561;23;19932;-76
2023/07/13 05:05:58;;;;;;;;;;;;;;;;;;1265433;23;20382;-76
2023/07/13 05:06:30;;;;;;;;;;;;;;;;;;1260735;23;20333;-79
2023/07/13 05:07:00;;;;;;;;;;;;;;;;;;1256187;22;19913;-79
2023/07/13 05:07:32;;;;;;;;;;;;;;;;;;1253531;23;20312;-77
2023/07/13 05:08:02;;;;;;;;;;;;;;;;;;1251620;23;20145;-79
2023/07/13 05:08:33;;;;;;;;;;;;;;;;;;1252711;23;19940;-76
2023/07/13 05:09:03;;;;;;;;;;;;;;;;;;1253370;23;20104;-79
2023/07/13 05:09:33;;;;;;;;;;;;;;;;;;1253691;23;20000;-77
2023/07/13 05:10:03;;;;;;;;;;;;;;;;;;1253037;23;19976;-79
2023/07/13 05:10:34;;;;;;;;;;;;;;;;;;1253825;23;19917;-78
2023/07/13 05:11:04;;;;;;;;;;;;;;;;;;1253490;23;19920;-79
2023/07/13 05:11:34;;;;;;;;;;;;;;;;;;1253868;23;19914;-77
2023/07/13 05:13:25;;;;;;;;;;;;;;;;;;1292718;22;19919;-77
2023/07/13 05:13:55;;;;;;;;;;;;;;;;;;1303567;22;20378;-76
2023/07/13 05:14:25;;;;;;;;;;;;;;;;;;1303602;22;20006;-76
2023/07/13 05:14:55;;;;;;;;;;;;;;;;;;1303480;22;20288;-77
2023/07/13 05:15:26;;;;;;;;;;;;;;;;;;1303995;22;19922;-76
2023/07/13 05:15:56;;;;;;;;;;;;;;;;;;1302823;22;19933;-77
2023/07/13 05:16:26;;;;;;;;;;;;;;;;;;1296767;22;19903;-76
2023/07/13 05:16:57;;;;;;;;;;;;;;;;;;1296657;22;19990;-77
2023/07/13 05:17:27;;;;;;;;;;;;;;;;;;1297452;22;19991;-79
2023/07/13 05:17:57;;;;;;;;;;;;;;;;;;1290436;22;19909;-79
2023/07/13 05:18:28;;;;;;;;;;;;;;;;;;1291054;23;20378;-79
2023/07/13 05:18:58;;;;;;;;;;;;;;;;;;1290751;23;19904;-77
2023/07/13 05:19:28;;;;;;;;;;;;;;;;;;1289005;23;19932;-78
2023/07/13 05:19:58;;;;;;;;;;;;;;;;;;1296656;22;19903;-78
2023/07/13 05:20:29;;;;;;;;;;;;;;;;;;1296573;22;19918;-78
2023/07/13 05:20:59;;;;;;;;;;;;;;;;;;1296588;22;20159;-77
2023/07/13 05:21:29;;;;;;;;;;;;;;;;;;1296854;22;19912;-79
2023/07/13 05:21:59;;;;;;;;;;;;;;;;;;1296583;22;19911;-77
2023/07/13 05:22:30;;;;;;;;;;;;;;;;;;1276421;22;19914;-79
2023/07/13 05:23:00;;;;;;;;;;;;;;;;;;1258855;23;20324;-77
2023/07/13 05:23:30;;;;;;;;;;;;;;;;;;1258705;23;19914;-77
2023/07/13 05:24:00;;;;;;;;;;;;;;;;;;1258367;23;20269;-79
2023/07/13 05:24:31;;;;;;;;;;;;;;;;;;1252921;23;20378;-78
2023/07/13 05:25:01;;;;;;;;;;;;;;;;;;1258804;23;19927;-78
2023/07/13 05:25:31;;;;;;;;;;;;;;;;;;1259270;23;19910;-78
2023/07/13 05:26:01;;;;;;;;;;;;;;;;;;1258606;23;19928;-78
2023/07/13 05:26:32;;;;;;;;;;;;;;;;;;1264112;23;19909;-78
2023/07/13 05:27:02;;;;;;;;;;;;;;;;;;1260969;23;19956;-80
2023/07/13 05:27:32;;;;;;;;;;;;;;;;;;1259280;23;19913;-77
2023/07/13 05:28:02;;;;;;;;;;;;;;;;;;1258209;23;19915;-77
2023/07/13 05:28:33;;;;;;;;;;;;;;;;;;1258387;23;19913;-76
2023/07/13 05:29:03;;;;;;;;;;;;;;;;;;1264892;23;20472;-78
2023/07/13 05:29:33;;;;;;;;;;;;;;;;;;1265308;23;20311;-78
2023/07/13 05:30:03;;;;;;;;;;;;;;;;;;1264881;23;19984;-78
2023/07/13 05:30:34;;;;;;;;;;;;;;;;;;1270954;23;19958;-78
2023/07/13 05:31:04;;;;;;;;;;;;;;;;;;1264795;23;20376;-78
2023/07/13 05:31:34;;;;;;;;;;;;;;;;;;1265218;23;19916;-77
2023/07/13 05:32:42;;;;;;;;;;;;;;;;;;1253139;23;19929;-77
2023/07/13 05:33:12;;;;;;;;;;;;;;;;;;1252739;23;20001;-77
2023/07/13 05:33:43;;;;;;;;;;;;;;;;;;1253638;23;20233;-77
2023/07/13 05:34:13;;;;;;;;;;;;;;;;;;1253044;23;19921;-76
2023/07/13 05:34:43;;;;;;;;;;;;;;;;;;1253886;23;19941;-79
2023/07/13 05:35:13;;;;;;;;;;;;;;;;;;1253841;23;19992;-79
2023/07/13 05:35:43;;;;;;;;;;;;;;;;;;1253019;23;19912;-77
2023/07/13 05:36:14;;;;;;;;;;;;;;;;;;1252699;23;19906;-78
2023/07/13 05:36:44;;;;;;;;;;;;;;;;;;1252995;23;19905;-75
2023/07/13 05:37:14;;;;;;;;;;;;;;;;;;1253063;23;19917;-76
2023/07/13 05:37:44;;;;;;;;;;;;;;;;;;1253466;23;19960;-76
2023/07/13 05:38:15;;;;;;;;;;;;;;;;;;1252790;23;19913;-78
2023/07/13 05:38:45;;;;;;;;;;;;;;;;;;1253612;23;20237;-78
2023/07/13 05:39:15;;;;;;;;;;;;;;;;;;1253621;23;19975;-78
2023/07/13 05:39:45;;;;;;;;;;;;;;;;;;1253338;23;19940;-77
2023/07/13 05:40:16;;;;;;;;;;;;;;;;;;1253952;23;19976;-79
2023/07/13 05:40:46;;;;;;;;;;;;;;;;;;1253629;23;19906;-77
2023/07/13 05:41:16;;;;;;;;;;;;;;;;;;1253450;23;20316;-76
2023/07/13 05:41:46;;;;;;;;;;;;;;;;;;1252957;23;19905;-75
2023/07/13 05:42:17;;;;;;;;;;;;;;;;;;1262242;23;19910;-79
2023/07/13 05:42:47;;;;;;;;;;;;;;;;;;1283986;23;19916;-77
2023/07/13 05:43:17;;;;;;;;;;;;;;;;;;1284343;23;19904;-76
2023/07/13 05:43:47;;;;;;;;;;;;;;;;;;1284042;23;19904;-76
2023/07/13 05:44:19;;;;;;;;;;;;;;;;;;1284298;23;19904;-74
2023/07/13 05:44:49;;;;;;;;;;;;;;;;;;1284271;23;19911;-76
2023/07/13 05:45:19;;;;;;;;;;;;;;;;;;1284391;23;19943;-75
2023/07/13 05:45:49;;;;;;;;;;;;;;;;;;1283469;23;20003;-76
2023/07/13 05:46:20;;;;;;;;;;;;;;;;;;1284320;23;20034;-77
2023/07/13 05:46:50;;;;;;;;;;;;;;;;;;1282134;23;19982;-76
2023/07/13 05:47:20;;;;;;;;;;;;;;;;;;1283507;23;19922;-74
2023/07/13 05:47:50;;;;;;;;;;;;;;;;;;1283788;23;19962;-77
2023/07/13 05:48:21;;;;;;;;;;;;;;;;;;1283956;23;19904;-76
2023/07/13 05:48:51;;;;;;;;;;;;;;;;;;1284182;23;19911;-76
2023/07/13 05:49:21;;;;;;;;;;;;;;;;;;1284444;23;19904;-76
2023/07/13 05:49:51;;;;;;;;;;;;;;;;;;1277564;23;19904;-76
2023/07/13 05:50:22;;;;;;;;;;;;;;;;;;1277627;23;19912;-77
2023/07/13 05:50:52;;;;;;;;;;;;;;;;;;1277850;23;19904;-77
2023/07/13 05:51:22;;;;;;;;;;;;;;;;;;1278191;23;19904;-77
2023/07/13 05:51:52;;;;;;;;;;;;;;;;;;1283582;23;19904;-76
2023/07/13 05:52:23;;;;;;;;;;;;;;;;;;1278014;23;20352;-78
2023/07/13 05:52:53;;;;;;;;;;;;;;;;;;1284056;23;19904;-78
2023/07/13 05:53:23;;;;;;;;;;;;;;;;;;1284422;23;19910;-77
2023/07/13 05:53:53;;;;;;;;;;;;;;;;;;1283763;23;20376;-76
2023/07/13 05:54:24;;;;;;;;;;;;;;;;;;1284003;23;19904;-77
2023/07/13 05:54:54;;;;;;;;;;;;;;;;;;1277976;23;19905;-78
2023/07/13 05:55:24;;;;;;;;;;;;;;;;;;1278215;23;19904;-76
2023/07/13 05:55:54;;;;;;;;;;;;;;;;;;1277851;23;19911;-79
2023/07/13 05:56:26;;;;;;;;;;;;;;;;;;1284337;23;19939;-77
2023/07/13 05:56:56;;;;;;;;;;;;;;;;;;1277228;23;19911;-76
2023/07/13 05:57:26;;;;;;;;;;;;;;;;;;1278237;23;20309;-76
2023/07/13 05:57:57;;;;;;;;;;;;;;;;;;1277998;23;20229;-77
2023/07/13 05:58:28;;;;;;;;;;;;;;;;;;1274692;22;19904;-79
2023/07/13 05:58:58;;;;;;;;;;;;;;;;;;1253294;23;19917;-78
2023/07/13 05:59:28;;;;;;;;;;;;;;;;;;1253361;23;19913;-79
2023/07/13 05:59:58;;;;;;;;;;;;;;;;;;1253012;23;19906;-78
2023/07/13 06:00:29;;;;;;;;;;;;;;;;;;1252555;23;19921;-78
2023/07/13 06:00:59;;;;;;;;;;;;;;;;;;1253044;23;19905;-77
2023/07/13 06:01:29;;;;;;;;;;;;;;;;;;1247243;23;19925;-78
2023/07/13 06:01:59;;;;;;;;;;;;;;;;;;1245406;23;19953;-77
2023/07/13 06:02:30;;;;;;;;;;;;;;;;;;1246294;23;19910;-76
2023/07/13 06:03:00;;;;;;;;;;;;;;;;;;1237348;23;20286;-77
2023/07/13 06:03:30;;;;;;;;;;;;;;;;;;1241057;23;19919;-77
2023/07/13 06:04:01;;;;;;;;;;;;;;;;;;1240139;23;19933;-77
2023/07/13 06:04:31;;;;;;;;;;;;;;;;;;1245773;23;19914;-78
2023/07/13 06:05:01;;;;;;;;;;;;;;;;;;1278547;23;20318;-79
2023/07/13 06:05:33;;;;;;;;;;;;;;;;;;1285187;23;19961;-79
2023/07/13 06:06:03;;;;;;;;;;;;;;;;;;1284638;23;19908;-79
2023/07/13 06:06:34;;;;;;;;;;;;;;;;;;1285164;23;19996;-79
2023/07/13 06:07:04;;;;;;;;;;;;;;;;;;1284844;23;20265;-79
2023/07/13 06:07:34;;;;;;;;;;;;;;;;;;1283774;23;19911;-78
2023/07/13 06:08:04;;;;;;;;;;;;;;;;;;1283920;23;19904;-81
2023/07/13 06:08:35;;;;;;;;;;;;;;;;;;1284227;23;19908;-79
2023/07/13 06:09:05;;;;;;;;;;;;;;;;;;1284215;23;19928;-79
2023/07/13 06:09:35;;;;;;;;;;;;;;;;;;1284424;23;19908;-79
2023/07/13 06:10:05;;;;;;;;;;;;;;;;;;1283836;23;19904;-77
2023/07/13 06:10:36;;;;;;;;;;;;;;;;;;1283225;23;20325;-77
2023/07/13 06:11:06;;;;;;;;;;;;;;;;;;1283933;23;19908;-77
2023/07/13 06:11:36;;;;;;;;;;;;;;;;;;1284088;23;19998;-77
2023/07/13 06:12:06;;;;;;;;;;;;;;;;;;1283214;23;19912;-76
2023/07/13 06:12:37;;;;;;;;;;;;;;;;;;1283813;23;19998;-78
2023/07/13 06:13:07;;;;;;;;;;;;;;;;;;1284324;23;20034;-77
2023/07/13 06:13:37;;;;;;;;;;;;;;;;;;1284353;23;19930;-77
2023/07/13 06:14:08;;;;;;;;;;;;;;;;;;1278523;23;19975;-78
2023/07/13 06:14:38;;;;;;;;;;;;;;;;;;1284417;23;19915;-77
2023/07/13 06:15:08;;;;;;;;;;;;;;;;;;1283049;23;19904;-79
2023/07/13 06:15:38;;;;;;;;;;;;;;;;;;1284138;23;19908;-76
2023/07/13 06:16:09;;;;;;;;;;;;;;;;;;1283279;23;20333;-77
2023/07/13 06:16:39;;;;;;;;;;;;;;;;;;1283576;23;20234;-77
2023/07/13 06:17:09;;;;;;;;;;;;;;;;;;1283993;23;19991;-77
2023/07/13 06:17:39;;;;;;;;;;;;;;;;;;1284430;23;19908;-78
2023/07/13 06:18:10;;;;;;;;;;;;;;;;;;1283752;23;19931;-77
2023/07/13 06:18:40;;;;;;;;;;;;;;;;;;1283841;23;19926;-77
2023/07/13 06:19:10;;;;;;;;;;;;;;;;;;1282834;23;19908;-76
2023/07/13 06:19:41;;;;;;;;;;;;;;;;;;1283748;23;19908;-75
2023/07/13 06:20:11;;;;;;;;;;;;;;;;;;1283292;23;19904;-77
2023/07/13 06:20:41;;;;;;;;;;;;;;;;;;1283971;23;19951;-78
2023/07/13 06:21:11;;;;;;;;;;;;;;;;;;1283935;23;19939;-79
2023/07/13 06:21:41;;;;;;;;;;;;;;;;;;1284026;23;20422;-78
2023/07/13 06:22:12;;;;;;;;;;;;;;;;;;1283843;23;20396;-78
2023/07/13 06:22:42;;;;;;;;;;;;;;;;;;1283160;23;19967;-78
2023/07/13 06:23:12;;;;;;;;;;;;;;;;;;1284064;23;19938;-79
2023/07/13 06:23:43;;;;;;;;;;;;;;;;;;1272344;22;19911;-78
2023/07/13 06:24:13;;;;;;;;;;;;;;;;;;1257989;23;19929;-78
2023/07/13 06:24:43;;;;;;;;;;;;;;;;;;1258696;23;19952;-78
2023/07/13 06:25:13;;;;;;;;;;;;;;;;;;1258726;23;19985;-78
2023/07/13 06:25:43;;;;;;;;;;;;;;;;;;1257867;23;20364;-79
2023/07/13 06:26:14;;;;;;;;;;;;;;;;;;1257815;23;19905;-78
2023/07/13 06:26:44;;;;;;;;;;;;;;;;;;1259643;23;19905;-79
2023/07/13 06:27:14;;;;;;;;;;;;;;;;;;1265372;23;19917;-79
2023/07/13 06:27:44;;;;;;;;;;;;;;;;;;1265142;23;19908;-78
2023/07/13 06:28:15;;;;;;;;;;;;;;;;;;1264762;23;19905;-79
2023/07/13 06:28:45;;;;;;;;;;;;;;;;;;1264577;23;19905;-77
2023/07/13 06:29:15;;;;;;;;;;;;;;;;;;1265104;23;20015;-79
2023/07/13 06:29:45;;;;;;;;;;;;;;;;;;1257354;23;19905;-79
2023/07/13 06:30:16;;;;;;;;;;;;;;;;;;1258625;23;20008;-78
2023/07/13 06:30:49;;;;;;;;;;;;;;;;;;1258151;23;19912;-79
2023/07/13 06:31:19;;;;;;;;;;;;;;;;;;1258533;23;19992;-81
2023/07/13 06:31:49;;;;;;;;;;;;;;;;;;1258465;23;20249;-78
2023/07/13 06:32:19;;;;;;;;;;;;;;;;;;1253585;22;19966;-78
2023/07/13 06:32:50;;;;;;;;;;;;;;;;;;1247790;23;20346;-78
2023/07/13 06:33:20;;;;;;;;;;;;;;;;;;1248881;23;20012;-78
2023/07/13 06:33:54;;;;;;;;;;;;;;;;;;1248265;23;20286;-78
2023/07/13 06:34:24;;;;;;;;;;;;;;;;;;1255045;23;19906;-79
2023/07/13 06:34:55;;;;;;;;;;;;;;;;;;1254311;23;20375;-77
2023/07/13 06:35:25;;;;;;;;;;;;;;;;;;1255773;23;19913;-79
2023/07/13 06:35:56;;;;;;;;;;;;;;;;;;1255495;23;20334;-79
2023/07/13 06:36:26;;;;;;;;;;;;;;;;;;1255314;23;20337;-78
2023/07/13 06:36:56;;;;;;;;;;;;;;;;;;1255311;23;19992;-77
2023/07/13 06:37:26;;;;;;;;;;;;;;;;;;1260429;23;19927;-78
2023/07/13 06:37:57;;;;;;;;;;;;;;;;;;1256743;23;19996;-78
2023/07/13 06:38:27;;;;;;;;;;;;;;;;;;1258100;23;19905;-77
2023/07/13 06:38:57;;;;;;;;;;;;;;;;;;1258361;23;19905;-78
2023/07/13 06:39:27;;;;;;;;;;;;;;;;;;1258657;23;19951;-77
2023/07/13 06:39:58;;;;;;;;;;;;;;;;;;1258283;23;19985;-80
2023/07/13 06:40:30;;;;;;;;;;;;;;;;;;1258708;23;20346;-76
2023/07/13 06:41:00;;;;;;;;;;;;;;;;;;1258639;23;19906;-79
2023/07/13 06:41:31;;;;;;;;;;;;;;;;;;1253400;23;20232;-78
2023/07/13 06:42:01;;;;;;;;;;;;;;;;;;1258020;23;19905;-76
2023/07/13 06:42:31;;;;;;;;;;;;;;;;;;1258437;23;19916;-77
2023/07/13 06:43:01;;;;;;;;;;;;;;;;;;1258287;23;19996;-77
2023/07/13 06:43:31;;;;;;;;;;;;;;;;;;1256556;22;19997;-78
2023/07/13 06:44:02;;;;;;;;;;;;;;;;;;1258641;23;19921;-80
2023/07/13 06:44:32;;;;;;;;;;;;;;;;;;1259952;23;20416;-79
2023/07/13 06:45:02;;;;;;;;;;;;;;;;;;1259695;23;20381;-79
2023/07/13 06:45:33;;;;;;;;;;;;;;;;;;1254122;23;19921;-78
2023/07/13 06:46:04;;;;;;;;;;;;;;;;;;1252096;23;19906;-79
2023/07/13 06:46:34;;;;;;;;;;;;;;;;;;1252743;23;19917;-78
2023/07/13 06:47:04;;;;;;;;;;;;;;;;;;1254752;23;19932;-75
2023/07/13 06:47:35;;;;;;;;;;;;;;;;;;1258060;23;19945;-78
2023/07/13 06:48:05;;;;;;;;;;;;;;;;;;1259048;23;19933;-78
2023/07/13 06:48:35;;;;;;;;;;;;;;;;;;1259219;23;19955;-75
2023/07/13 06:49:05;;;;;;;;;;;;;;;;;;1258925;23;19992;-77
2023/07/13 06:49:36;;;;;;;;;;;;;;;;;;1265453;23;19909;-77
2023/07/13 06:50:06;;;;;;;;;;;;;;;;;;1264734;23;19905;-76
2023/07/13 06:50:36;;;;;;;;;;;;;;;;;;1265230;23;19909;-78
2023/07/13 06:51:07;;;;;;;;;;;;;;;;;;1264980;23;19941;-77
2023/07/13 06:51:37;;;;;;;;;;;;;;;;;;1265227;23;19947;-78
2023/07/13 06:52:47;;;;;;;;;;;;;;;;;;1251858;22;19921;-78
2023/07/13 06:53:17;;;;;;;;;;;;;;;;;;1268070;22;19921;-77
2023/07/13 06:53:48;;;;;;;;;;;;;;;;;;1290454;23;19911;-78
2023/07/13 06:54:18;;;;;;;;;;;;;;;;;;1290388;22;19904;-78
2023/07/13 06:54:48;;;;;;;;;;;;;;;;;;1290954;22;19911;-77
2023/07/13 06:55:18;;;;;;;;;;;;;;;;;;1291133;22;19911;-78
2023/07/13 06:55:49;;;;;;;;;;;;;;;;;;1290412;22;19910;-77
2023/07/13 06:56:19;;;;;;;;;;;;;;;;;;1288985;22;20227;-76
2023/07/13 06:56:49;;;;;;;;;;;;;;;;;;1290223;23;19904;-77
2023/07/13 06:57:19;;;;;;;;;;;;;;;;;;1296402;22;19907;-76
2023/07/13 06:57:50;;;;;;;;;;;;;;;;;;1296819;22;19910;-77
2023/07/13 06:58:20;;;;;;;;;;;;;;;;;;1290013;23;19903;-77
2023/07/13 06:58:50;;;;;;;;;;;;;;;;;;1296626;22;19926;-76